Time;durP1;ratioP1;P1;durP2;ratioP2;P2;SDS_P1;SDS_P2;PMS_P1;PMS_P2;Temp;Humidity;BMP_temperature;BMP_pressure;BME280_temperature;BME280_humidity;BME280_pressure;Samples;Min_cycle;Max_cycle;Signal;HPM_P1;HPM_P2
2022/01/14 00:01:16;;;;;;;70.97;35.22;;;-0.20;99.90;;;;;;5072367;28;20110;-50
2022/01/14 00:03:42;;;;;;;73.70;36.92;;;-0.50;99.90;;;;;;5023136;28;20041;-48
2022/01/14 00:06:09;;;;;;;68.63;40.35;;;-0.70;99.90;;;;;;5023430;28;20032;-49
2022/01/14 00:08:35;;;;;;;71.82;40.85;;;-0.50;99.90;;;;;;5075148;28;20024;-50
2022/01/14 00:11:03;;;;;;;67.10;33.78;;;-0.50;99.90;;;;;;5075280;28;20074;-51
2022/01/14 00:16:13;;;;;;;66.95;39.58;;;-0.70;99.90;;;;;;5071438;28;20024;-49
2022/01/14 00:18:39;;;;;;;62.25;35.60;;;-0.70;99.90;;;;;;5075092;28;20043;-50
2022/01/14 00:21:05;;;;;;;74.47;36.80;;;-0.80;99.90;;;;;;5075621;28;20032;-49
2022/01/14 00:23:36;;;;;;;72.43;38.35;;;-0.70;99.90;;;;;;5039711;28;20037;-48
2022/01/14 00:34:16;;;;;;;119.72;53.90;;;-0.60;99.90;;;;;;5074997;28;20051;-47
2022/01/14 00:36:42;;;;;;;110.15;54.58;;;-0.40;99.90;;;;;;5075259;28;20242;-49
2022/01/14 00:39:11;;;;;;;110.57;52.55;;;-0.20;99.90;;;;;;5074554;28;20440;-47
2022/01/14 00:41:37;;;;;;;105.38;50.78;;;0.10;99.90;;;;;;5074910;28;20032;-46
2022/01/14 00:44:10;;;;;;;122.60;58.75;;;0.30;99.90;;;;;;5067496;28;20063;-48
2022/01/14 00:46:40;;;;;;;98.15;48.55;;;0.50;99.90;;;;;;5074654;28;20053;-47
2022/01/14 00:49:06;;;;;;;110.88;54.25;;;0.80;99.90;;;;;;5050697;28;20035;-47
2022/01/14 00:51:32;;;;;;;105.78;51.60;;;0.90;99.90;;;;;;5074625;28;20111;-50
2022/01/14 00:53:58;;;;;;;109.60;54.88;;;1.20;99.90;;;;;;4991963;28;20448;-46
2022/01/14 01:01:35;;;;;;;76.03;40.85;;;1.30;99.90;;;;;;5074366;28;20081;-49
2022/01/14 01:04:01;;;;;;;57.08;30.27;;;1.00;99.90;;;;;;5074551;28;20441;-49
2022/01/14 01:06:26;;;;;;;60.53;32.40;;;0.80;99.90;;;;;;5037688;28;20047;-47
2022/01/14 01:08:55;;;;;;;52.92;28.42;;;0.60;99.90;;;;;;5017679;28;20067;-48
2022/01/14 01:11:26;;;;;;;53.42;28.80;;;0.40;99.90;;;;;;5056978;28;20051;-46
2022/01/14 01:14:02;;;;;;;57.42;31.08;;;0.30;99.90;;;;;;5072736;28;20436;-50
2022/01/14 01:16:28;;;;;;;54.28;31.25;;;0.30;99.90;;;;;;5074844;28;20032;-47
2022/01/14 01:18:53;;;;;;;54.70;32.45;;;0.40;99.90;;;;;;5074189;28;20464;-49
2022/01/14 01:21:19;;;;;;;57.47;33.05;;;0.40;99.90;;;;;;5022941;28;20040;-49
2022/01/14 01:23:45;;;;;;;56.03;33.25;;;0.60;99.90;;;;;;5074142;28;20033;-48
2022/01/14 01:26:20;;;;;;;56.78;33.08;;;0.80;99.90;;;;;;5034349;28;20090;-47
2022/01/14 01:31:36;;;;;;;60.95;34.47;;;1.40;99.90;;;;;;4995131;28;20071;-46
2022/01/14 01:34:07;;;;;;;59.92;34.78;;;1.60;99.90;;;;;;5076333;28;20024;-47
2022/01/14 01:36:33;;;;;;;58.72;35.15;;;1.70;99.90;;;;;;5072018;28;20040;-56
2022/01/14 01:38:59;;;;;;;60.97;35.00;;;1.70;99.90;;;;;;5078504;28;20572;-48
2022/01/14 01:41:25;;;;;;;60.05;35.25;;;1.60;99.90;;;;;;5078207;28;20036;-53
2022/01/14 01:43:54;;;;;;;70.25;40.95;;;1.70;99.90;;;;;;5077080;28;20115;-48
2022/01/14 01:46:21;;;;;;;69.78;38.78;;;1.90;99.90;;;;;;5073827;28;20052;-48
2022/01/14 01:48:47;;;;;;;68.00;38.97;;;1.90;99.90;;;;;;5074185;28;20089;-47
2022/01/14 01:51:13;;;;;;;84.85;44.90;;;2.00;99.90;;;;;;5073489;28;20060;-47
2022/01/14 01:53:39;;;;;;;85.70;46.15;;;2.10;99.90;;;;;;5038713;28;20060;-49
2022/01/14 01:56:06;;;;;;;90.43;49.47;;;2.20;99.90;;;;;;4988488;28;20439;-50
2022/01/14 01:58:31;;;;;;;98.53;49.53;;;2.30;99.90;;;;;;5021805;28;20154;-50
2022/01/14 02:00:57;;;;;;;80.38;45.22;;;2.30;99.90;;;;;;5055137;28;20052;-48
2022/01/14 02:03:23;;;;;;;70.47;39.42;;;2.40;99.90;;;;;;5018957;28;20044;-49
2022/01/14 02:05:50;;;;;;;74.60;40.95;;;2.50;99.90;;;;;;5053263;28;20033;-49
2022/01/14 02:08:16;;;;;;;79.32;41.17;;;2.50;99.90;;;;;;5073147;28;20111;-49
2022/01/14 02:10:41;;;;;;;66.03;36.63;;;2.60;99.90;;;;;;5073317;28;20133;-49
2022/01/14 02:13:09;;;;;;;70.32;39.75;;;2.30;99.90;;;;;;5072538;28;20464;-49
2022/01/14 02:15:48;;;;;;;65.13;38.42;;;2.10;99.90;;;;;;5073221;28;20060;-49
2022/01/14 02:23:31;;;;;;;70.85;41.50;;;2.50;99.90;;;;;;5073180;28;20090;-49
2022/01/14 02:25:57;;;;;;;71.45;43.70;;;2.60;99.90;;;;;;5072707;28;21300;-47
2022/01/14 02:28:23;;;;;;;64.00;36.90;;;2.60;99.90;;;;;;5073408;28;20444;-47
2022/01/14 02:30:50;;;;;;;72.68;41.53;;;2.40;99.90;;;;;;5072745;28;20036;-48
2022/01/14 02:33:17;;;;;;;78.10;45.70;;;2.50;99.90;;;;;;5072992;28;20490;-47
2022/01/14 02:35:48;;;;;;;76.13;45.08;;;2.60;99.90;;;;;;5067608;28;20154;-49
2022/01/14 02:38:15;;;;;;;78.05;44.63;;;2.70;99.90;;;;;;5066825;28;20462;-49
2022/01/14 02:40:42;;;;;;;76.05;43.08;;;2.70;99.90;;;;;;5072710;28;20032;-47
2022/01/14 02:43:14;;;;;;;70.13;41.10;;;2.70;99.90;;;;;;5072692;28;20033;-50
2022/01/14 02:45:48;;;;;;;79.15;45.03;;;;;;;;;;5072947;28;20082;-48
2022/01/14 02:48:15;;;;;;;78.82;43.55;;;;;;;;;;5072767;28;20052;-49
2022/01/14 02:50:42;;;;;;;65.35;40.35;;;;;;;;;;5072551;28;20032;-48
2022/01/14 02:53:25;;;;;;;70.88;39.88;;;;;;;;;;5033926;28;20037;-47
2022/01/14 02:55:53;;;;;;;74.05;40.00;;;2.60;99.90;;;;;;5073115;28;20539;-49
2022/01/14 02:58:20;;;;;;;81.25;42.53;;;2.00;99.90;;;;;;5074375;28;20039;-50
2022/01/14 03:00:50;;;;;;;134.38;58.00;;;1.50;99.90;;;;;;5075340;28;20478;-50
2022/01/14 03:03:16;;;;;;;82.68;43.58;;;1.40;99.90;;;;;;5075104;28;20032;-48
2022/01/14 03:05:42;;;;;;;72.72;42.05;;;1.30;99.90;;;;;;5074562;28;20450;-49
2022/01/14 03:08:08;;;;;;;77.85;42.17;;;1.30;99.90;;;;;;5023399;28;20116;-50
2022/01/14 03:10:34;;;;;;;66.95;37.30;;;1.10;99.90;;;;;;5072717;28;20051;-48
2022/01/14 03:13:00;;;;;;;65.65;37.10;;;1.10;99.90;;;;;;5000217;28;20044;-54
2022/01/14 03:15:26;;;;;;;65.93;35.95;;;0.70;99.90;;;;;;5074209;28;20033;-50
2022/01/14 03:17:52;;;;;;;62.38;38.42;;;0.50;99.90;;;;;;5074882;28;20492;-47
2022/01/14 03:23:14;;;;;;;102.85;46.97;;;0.70;99.90;;;;;;4985944;28;20042;-59
2022/01/14 03:25:49;;;;;;;84.28;42.40;;;0.90;99.90;;;;;;5016702;28;20030;-49
2022/01/14 03:28:24;;;;;;;64.38;34.50;;;0.90;99.90;;;;;;5022109;28;20034;-50
2022/01/14 03:30:52;;;;;;;62.60;35.30;;;0.90;99.90;;;;;;4982774;28;20046;-49
2022/01/14 03:33:18;;;;;;;63.90;36.25;;;0.80;99.90;;;;;;5012295;28;20038;-48
2022/01/14 03:35:45;;;;;;;64.88;36.22;;;0.70;99.90;;;;;;5009481;28;20030;-49
2022/01/14 03:38:10;;;;;;;56.83;30.75;;;0.70;99.90;;;;;;5020548;28;20037;-47
2022/01/14 03:40:36;;;;;;;54.55;31.27;;;0.70;99.90;;;;;;5021205;28;20050;-48
2022/01/14 03:43:02;;;;;;;40.45;25.50;;;0.60;99.90;;;;;;4981307;28;20034;-51
2022/01/14 03:45:28;;;;;;;47.30;27.55;;;0.40;99.90;;;;;;4968996;28;20034;-47
2022/01/14 03:47:54;;;;;;;52.65;31.05;;;0.30;99.90;;;;;;5017355;28;20041;-47
2022/01/14 03:50:20;;;;;;;49.40;30.17;;;0.30;99.90;;;;;;5004226;28;20041;-47
2022/01/14 03:52:46;;;;;;;52.03;29.33;;;0.20;99.90;;;;;;5027620;28;20401;-48
2022/01/14 03:55:11;;;;;;;52.10;31.35;;;0.20;99.90;;;;;;5025122;28;20029;-50
2022/01/14 03:57:37;;;;;;;55.15;31.20;;;0.20;99.90;;;;;;5023942;28;20034;-48
2022/01/14 04:00:04;;;;;;;48.75;29.20;;;0.20;99.90;;;;;;5028648;28;20041;-48
2022/01/14 04:02:29;;;;;;;48.28;29.90;;;0.30;99.90;;;;;;4957383;28;20042;-49
2022/01/14 04:04:55;;;;;;;55.80;31.33;;;0.60;99.90;;;;;;5047380;28;20476;-48
2022/01/14 04:07:21;;;;;;;47.25;29.05;;;0.60;99.90;;;;;;4994695;28;20041;-48
2022/01/14 04:09:47;;;;;;;48.85;29.27;;;0.60;99.90;;;;;;5006549;28;20061;-46
2022/01/14 04:12:19;;;;;;;51.53;29.75;;;0.80;99.90;;;;;;5011302;28;20052;-50
2022/01/14 04:17:11;;;;;;;49.92;27.15;;;0.60;99.90;;;;;;5075459;28;20086;-47
2022/01/14 04:19:38;;;;;;;132.88;60.90;;;0.30;99.90;;;;;;5074113;28;20024;-47
2022/01/14 04:22:04;;;;;;;58.90;31.73;;;0.20;99.90;;;;;;5072653;28;20032;-47
2022/01/14 04:24:30;;;;;;;54.72;32.92;;;0.10;99.90;;;;;;5075146;28;20033;-49
2022/01/14 04:26:56;;;;;;;52.92;31.67;;;0.10;99.90;;;;;;5074891;28;20047;-47
2022/01/14 04:29:22;;;;;;;55.88;32.03;;;0.10;99.90;;;;;;5074824;28;20119;-46
2022/01/14 04:31:48;;;;;;;66.15;36.72;;;0.00;99.90;;;;;;5075483;28;20453;-50
2022/01/14 04:34:16;;;;;;;71.97;42.42;;;-0.10;99.90;;;;;;5074653;28;20170;-48
2022/01/14 04:36:42;;;;;;;59.83;35.13;;;-0.10;99.90;;;;;;5074987;28;20039;-46
2022/01/14 04:39:10;;;;;;;52.90;31.02;;;-0.20;99.90;;;;;;5074331;28;20056;-48
2022/01/14 04:41:35;;;;;;;65.30;35.92;;;-0.30;99.90;;;;;;5074611;28;20079;-50
2022/01/14 04:44:01;;;;;;;61.85;36.72;;;-0.30;99.90;;;;;;4989885;28;20408;-48
2022/01/14 04:48:53;;;;;;;65.15;37.33;;;-0.30;99.90;;;;;;5074898;28;20025;-49
2022/01/14 04:51:21;;;;;;;156.77;80.57;;;-0.30;99.90;;;;;;5016151;28;20118;-49
2022/01/14 04:53:47;;;;;;;137.05;77.00;;;-0.10;99.90;;;;;;5056013;28;20400;-49
2022/01/14 04:56:13;;;;;;;110.65;66.03;;;0.20;99.90;;;;;;5031555;28;20033;-46
2022/01/14 04:58:39;;;;;;;94.25;52.83;;;0.30;99.90;;;;;;5032415;28;20041;-48
2022/01/14 05:01:05;;;;;;;118.10;67.70;;;0.70;99.90;;;;;;4996645;28;20072;-50
2022/01/14 05:03:31;;;;;;;113.30;56.13;;;0.60;99.90;;;;;;4995033;28;20037;-49
2022/01/14 05:05:59;;;;;;;106.47;52.63;;;0.80;99.90;;;;;;4995760;28;20041;-47
2022/01/14 05:08:31;;;;;;;86.45;46.65;;;0.90;99.90;;;;;;5029951;28;20370;-48
2022/01/14 05:13:24;;;;;;;74.97;45.72;;;1.20;99.90;;;;;;5029150;28;20029;-50
2022/01/14 05:15:50;;;;;;;74.72;42.35;;;1.20;99.90;;;;;;5031363;28;20115;-47
2022/01/14 05:18:16;;;;;;;73.78;46.85;;;1.20;99.90;;;;;;5028406;28;20033;-47
2022/01/14 05:20:42;;;;;;;80.57;48.50;;;1.20;99.90;;;;;;4984491;28;20051;-49
2022/01/14 05:23:08;;;;;;;94.57;52.70;;;0.90;99.90;;;;;;4987781;28;20571;-49
2022/01/14 05:25:33;;;;;;;74.20;42.28;;;0.70;99.90;;;;;;5027985;28;20037;-50
2022/01/14 05:27:59;;;;;;;88.38;46.17;;;0.60;99.90;;;;;;5063294;28;20407;-49
2022/01/14 05:30:25;;;;;;;74.30;40.17;;;0.40;99.90;;;;;;5015142;28;20517;-47
2022/01/14 05:32:53;;;;;;;78.80;45.28;;;0.20;99.90;;;;;;5073920;28;20115;-47
2022/01/14 05:35:24;;;;;;;69.78;42.85;;;0.10;99.90;;;;;;5073094;28;20451;-49
2022/01/14 05:37:50;;;;;;;48.60;28.73;;;0.00;99.90;;;;;;5071472;28;20103;-48
2022/01/14 05:40:18;;;;;;;61.55;34.72;;;-0.40;99.90;;;;;;5068945;28;20550;-50
2022/01/14 05:42:44;;;;;;;70.85;40.53;;;-0.50;99.90;;;;;;5070186;28;20127;-50
2022/01/14 05:45:12;;;;;;;70.10;42.22;;;-0.40;99.90;;;;;;5073289;28;20032;-48
2022/01/14 05:47:39;;;;;;;59.97;36.35;;;-0.40;99.90;;;;;;4993429;28;20042;-48
2022/01/14 05:50:08;;;;;;;62.40;32.90;;;-0.30;99.90;;;;;;4992178;28;20101;-49
2022/01/14 05:52:34;;;;;;;62.05;34.58;;;-0.50;99.90;;;;;;4988449;28;20043;-46
2022/01/14 05:55:01;;;;;;;49.10;27.48;;;-0.70;99.90;;;;;;4986814;28;20026;-48
2022/01/14 05:57:27;;;;;;;58.20;34.50;;;-0.80;99.90;;;;;;4990382;28;20042;-50
2022/01/14 05:59:53;;;;;;;58.53;33.75;;;-0.80;99.90;;;;;;4991058;28;20035;-48
2022/01/14 06:02:19;;;;;;;55.53;30.60;;;-0.70;99.90;;;;;;4925349;28;20081;-48
2022/01/14 06:04:45;;;;;;;55.17;31.90;;;-0.60;99.90;;;;;;4958477;28;20030;-48
2022/01/14 06:07:11;;;;;;;54.78;30.65;;;-0.50;99.90;;;;;;4974736;28;20170;-50
2022/01/14 06:09:37;;;;;;;55.88;33.72;;;-0.60;99.90;;;;;;4989276;28;20041;-49
2022/01/14 06:12:04;;;;;;;56.20;33.63;;;-0.50;99.90;;;;;;4990523;28;20034;-50
2022/01/14 06:14:30;;;;;;;57.42;34.47;;;-0.50;99.90;;;;;;4986734;28;20034;-47
2022/01/14 06:16:56;;;;;;;60.67;36.33;;;-0.50;99.90;;;;;;4989577;28;20360;-49
2022/01/14 06:19:23;;;;;;;70.80;40.83;;;-0.50;99.90;;;;;;5023074;28;20034;-50
2022/01/14 06:21:49;;;;;;;79.85;47.88;;;-0.30;99.90;;;;;;5031680;28;20041;-47
2022/01/14 06:24:15;;;;;;;112.72;73.07;;;0.00;99.90;;;;;;5011976;28;20103;-47
2022/01/14 06:26:40;;;;;;;154.57;103.15;;;0.10;99.90;;;;;;5013711;28;20037;-50
2022/01/14 06:29:06;;;;;;;84.28;53.42;;;0.20;99.90;;;;;;5025893;28;20029;-46
2022/01/14 06:31:32;;;;;;;91.45;57.67;;;0.40;99.90;;;;;;5012980;28;20029;-47
2022/01/14 06:33:58;;;;;;;86.18;53.78;;;0.60;99.90;;;;;;5032438;28;20030;-46
2022/01/14 06:36:23;;;;;;;255.40;145.63;;;0.80;99.90;;;;;;5016983;28;20139;-49
2022/01/14 06:38:49;;;;;;;175.20;100.45;;;0.90;99.90;;;;;;4997031;28;20033;-49
2022/01/14 06:41:15;;;;;;;82.32;48.38;;;1.10;99.90;;;;;;5028068;28;20052;-47
2022/01/14 06:43:41;;;;;;;89.32;50.95;;;1.20;99.90;;;;;;5030547;28;20032;-48
2022/01/14 06:46:07;;;;;;;82.88;48.78;;;1.30;99.90;;;;;;5035407;28;20040;-48
2022/01/14 06:48:34;;;;;;;77.72;46.92;;;;;;;;;;5046075;28;20373;-49
2022/01/14 06:51:00;;;;;;;77.50;46.88;;;;;;;;;;5072300;28;20032;-49
2022/01/14 06:53:26;;;;;;;83.30;50.35;;;3.80;99.90;;;;;;5072386;28;20460;-49
2022/01/14 06:55:52;;;;;;;97.53;60.65;;;5.90;99.90;;;;;;5072017;28;20040;-49
2022/01/14 06:58:17;;;;;;;107.88;65.07;;;7.50;99.90;;;;;;5005890;28;20037;-50
2022/01/14 07:00:44;;;;;;;110.22;64.82;;;;;;;;;;5074408;28;20037;-50
2022/01/14 07:03:10;;;;;;;127.03;78.15;;;11.20;99.90;;;;;;5071768;28;20032;-47
2022/01/14 07:05:35;;;;;;;119.43;70.03;;;12.40;93.60;;;;;;4963304;28;20119;-50
2022/01/14 07:08:01;;;;;;;111.60;73.28;;;12.90;90.40;;;;;;5072319;28;20563;-46
2022/01/14 07:10:27;;;;;;;108.93;73.85;;;13.80;90.00;;;;;;5072457;28;20033;-49
2022/01/14 07:12:53;;;;;;;163.93;113.18;;;14.40;85.50;;;;;;5022298;28;20055;-49
2022/01/14 07:15:20;;;;;;;172.63;119.03;;;15.50;84.40;;;;;;5077122;28;20039;-48
2022/01/14 07:17:47;;;;;;;159.82;101.65;;;;;;;;;;5075820;28;20028;-49
2022/01/14 07:20:14;;;;;;;153.40;99.90;;;;;;;;;;5076192;28;20168;-47
2022/01/14 07:22:42;;;;;;;127.43;91.88;;;16.60;77.50;;;;;;5056891;28;20037;-48
2022/01/14 07:25:08;;;;;;;100.57;66.43;;;;;;;;;;5075763;28;20040;-47
2022/01/14 07:27:34;;;;;;;66.32;43.67;;;18.10;85.10;;;;;;4985048;28;20040;-49
2022/01/14 07:30:00;;;;;;;77.20;51.35;;;18.40;97.30;;;;;;5075417;28;20476;-50
2022/01/14 07:32:26;;;;;;;82.63;57.25;;;19.10;71.30;;;;;;5051030;28;20040;-50
2022/01/14 07:34:52;;;;;;;83.13;54.70;;;19.40;68.90;;;;;;5075030;28;20029;-49
2022/01/14 07:37:18;;;;;;;88.95;63.38;;;19.60;84.90;;;;;;5075951;28;20044;-48
2022/01/14 07:39:45;;;;;;;83.70;56.30;;;;;;;;;;5075509;28;20103;-48
2022/01/14 07:42:11;;;;;;;88.15;60.75;;;22.30;68.50;;;;;;5072495;28;20048;-48
2022/01/14 07:44:38;;;;;;;87.15;61.70;;;20.80;91.80;;;;;;5076107;28;20039;-49
2022/01/14 07:47:04;;;;;;;79.35;56.60;;;20.70;64.60;;;;;;5075180;28;20083;-48
2022/01/14 07:49:30;;;;;;;80.18;56.95;;;21.10;64.30;;;;;;5076047;28;20032;-48
2022/01/14 07:51:56;;;;;;;68.97;52.65;;;;;;;;;;5041083;28;20028;-47
2022/01/14 07:54:22;;;;;;;59.67;46.95;;;21.70;61.60;;;;;;5074907;28;20036;-47
2022/01/14 07:56:52;;;;;;;58.88;45.30;;;21.90;61.50;;;;;;5071990;28;20026;-47
2022/01/14 07:59:22;;;;;;;56.63;41.80;;;22.10;60.70;;;;;;5070743;28;20044;-47
2022/01/14 08:01:50;;;;;;;52.50;39.92;;;22.10;60.30;;;;;;5052925;28;20040;-47
2022/01/14 08:04:17;;;;;;;50.97;38.70;;;21.90;60.30;;;;;;4978165;28;20073;-45
2022/01/14 08:06:47;;;;;;;52.38;40.10;;;21.90;59.90;;;;;;5013781;28;20053;-46
2022/01/14 08:09:15;;;;;;;45.33;34.83;;;22.00;59.60;;;;;;5013422;28;20136;-45
2022/01/14 08:11:42;;;;;;;36.47;30.77;;;22.00;59.70;;;;;;4978524;28;20037;-45
2022/01/14 08:14:08;;;;;;;37.63;30.98;;;22.20;59.30;;;;;;5012900;28;20041;-45
2022/01/14 08:16:34;;;;;;;36.78;29.75;;;22.30;59.00;;;;;;5013285;28;20092;-45
2022/01/14 08:19:00;;;;;;;37.30;30.45;;;22.30;58.90;;;;;;4968014;28;20034;-46
2022/01/14 08:21:26;;;;;;;34.15;27.92;;;22.90;58.80;;;;;;5013887;28;20038;-45
2022/01/14 08:23:51;;;;;;;31.40;26.50;;;23.20;58.40;;;;;;4979979;28;20066;-47
2022/01/14 08:26:17;;;;;;;32.83;27.90;;;23.40;58.20;;;;;;5011930;28;20034;-47
2022/01/14 08:28:43;;;;;;;30.58;24.70;;;23.00;58.10;;;;;;5012104;28;20033;-45
2022/01/14 08:31:09;;;;;;;38.03;30.08;;;23.60;57.90;;;;;;4961784;28;20564;-46
2022/01/14 08:33:35;;;;;;;31.85;26.90;;;23.60;57.70;;;;;;4980270;28;20052;-46
2022/01/14 08:36:01;;;;;;;41.55;30.75;;;23.00;57.80;;;;;;5062406;28;20120;-47
2022/01/14 08:38:27;;;;;;;28.73;24.50;;;24.00;57.50;;;;;;5073861;28;20059;-47
2022/01/14 08:40:53;;;;;;;98.10;53.13;;;24.10;57.20;;;;;;5073698;28;20374;-47
2022/01/14 08:43:19;;;;;;;385.73;207.82;;;23.60;57.30;;;;;;5003693;28;20032;-47
2022/01/14 08:45:45;;;;;;;32.20;26.27;;;21.70;58.70;;;;;;5070143;28;20040;-48
2022/01/14 08:48:11;;;;;;;36.13;28.88;;;23.90;57.50;;;;;;5073702;28;20139;-45
2022/01/14 08:50:38;;;;;;;45.22;35.15;;;24.80;57.00;;;;;;5072893;28;20028;-48
2022/01/14 08:53:09;;;;;;;164.02;89.63;;;24.20;56.80;;;;;;5050462;28;20037;-47
2022/01/14 08:55:36;;;;;;;323.15;172.82;;;22.90;57.80;;;;;;5025789;28;20474;-47
2022/01/14 08:58:03;;;;;;;51.03;38.53;;;24.00;58.10;;;;;;5027011;28;20602;-47
2022/01/14 09:00:30;;;;;;;83.10;54.20;;;23.30;57.80;;;;;;5024446;28;20068;-46
2022/01/14 09:02:56;;;;;;;92.43;60.50;;;21.60;59.20;;;;;;5026854;28;20120;-47
2022/01/14 09:05:23;;;;;;;45.38;33.75;;;21.20;60.00;;;;;;5024787;28;20136;-45
2022/01/14 09:07:50;;;;;;;30.98;27.58;;;22.20;59.70;;;;;;5024014;28;20037;-47
2022/01/14 09:10:18;;;;;;;34.47;27.20;;;23.70;58.60;;;;;;5016639;28;20071;-47
2022/01/14 09:12:43;;;;;;;32.72;28.00;;;23.60;57.60;;;;;;5022882;28;20038;-46
2022/01/14 09:15:10;;;;;;;35.00;29.92;;;24.50;57.90;;;;;;5025474;28;20500;-48
2022/01/14 09:17:36;;;;;;;45.88;33.67;;;25.50;67.30;;;;;;4994572;28;20120;-48
2022/01/14 09:20:04;;;;;;;33.75;30.55;;;;;;;;;;5024379;28;20107;-47
2022/01/14 09:22:34;;;;;;;59.75;41.85;;;25.20;56.80;;;;;;4994933;28;20033;-47
2022/01/14 09:25:00;;;;;;;38.58;30.88;;;25.40;57.00;;;;;;5046093;28;20170;-47
2022/01/14 09:27:29;;;;;;;54.80;36.22;;;24.80;57.00;;;;;;5070121;28;20076;-47
2022/01/14 09:29:57;;;;;;;53.63;41.08;;;25.50;57.40;;;;;;5071570;28;20028;-46
2022/01/14 09:32:23;;;;;;;38.03;34.05;;;23.10;57.80;;;;;;5074053;28;20119;-47
2022/01/14 09:34:49;;;;;;;45.83;41.42;;;22.40;58.50;;;;;;5036721;28;20511;-47
2022/01/14 09:37:15;;;;;;;35.20;30.45;;;24.00;58.90;;;;;;5081630;28;20032;-46
2022/01/14 09:39:43;;;;;;;35.42;31.60;;;24.90;69.40;;;;;;5077547;28;20410;-47
2022/01/14 09:42:13;;;;;;;36.65;29.20;;;22.80;61.90;;;;;;5075340;28;20119;-48
2022/01/14 09:44:40;;;;;;;37.42;31.63;;;21.10;60.60;;;;;;5039760;28;20419;-46
2022/01/14 09:47:06;;;;;;;36.72;28.33;;;20.70;61.20;;;;;;5021524;28;20481;-48
2022/01/14 09:49:32;;;;;;;312.88;176.35;;;20.20;62.70;;;;;;5035591;28;20048;-47
2022/01/14 09:51:58;;;;;;;49.85;40.10;;;22.80;61.10;;;;;;5054043;28;20048;-47
2022/01/14 09:54:23;;;;;;;36.92;27.67;;;22.90;60.90;;;;;;5072647;28;20028;-46
2022/01/14 09:56:49;;;;;;;29.75;26.48;;;24.30;91.30;;;;;;5019880;28;20608;-46
2022/01/14 09:59:17;;;;;;;37.33;31.95;;;24.00;59.60;;;;;;5070543;28;20036;-48
2022/01/14 10:01:47;;;;;;;42.53;28.60;;;23.20;60.30;;;;;;5071565;28;20044;-47
2022/01/14 10:04:22;;;;;;;50.60;46.78;;;25.10;73.90;;;;;;5072346;28;20029;-47
2022/01/14 10:06:54;;;;;;;32.88;28.65;;;25.30;58.20;;;;;;5070542;28;20020;-47
2022/01/14 10:09:31;;;;;;;33.50;30.63;;;25.20;58.60;;;;;;5072518;28;20028;-46
2022/01/14 10:12:03;;;;;;;28.25;25.75;;;25.20;59.40;;;;;;5072371;28;20114;-46
2022/01/14 10:14:29;;;;;;;;;;;;;;;;;;5069117;28;20061;-47
2022/01/14 10:16:57;;;;;;;26.40;23.83;;;25.40;58.00;;;;;;5070824;28;20318;-47
2022/01/14 10:19:28;;;;;;;33.38;30.23;;;25.90;58.30;;;;;;5071588;28;20041;-48
2022/01/14 10:21:56;;;;;;;32.00;29.25;;;25.10;58.40;;;;;;5030201;28;20054;-47
2022/01/14 10:24:24;;;;;;;26.60;23.98;;;25.50;58.80;;;;;;5026109;28;20034;-48
2022/01/14 10:26:56;;;;;;;41.35;26.42;;;25.30;58.30;;;;;;5029455;28;20057;-47
2022/01/14 10:29:38;;;;;;;32.80;29.25;;;25.20;58.80;;;;;;5029348;28;20041;-46
2022/01/14 10:32:07;;;;;;;38.15;31.67;;;25.10;58.90;;;;;;5027962;28;20038;-48
2022/01/14 10:34:35;;;;;;;35.78;23.52;;;25.60;59.10;;;;;;5022546;28;20394;-48
2022/01/14 10:37:15;;;;;;;24.85;22.27;;;25.90;59.10;;;;;;5028125;28;20025;-47
2022/01/14 10:39:54;;;;;;;22.05;19.83;;;23.20;59.20;;;;;;5012472;28;20140;-48
2022/01/14 10:42:31;;;;;;;22.83;20.52;;;21.10;61.90;;;;;;5025392;28;20060;-49
2022/01/14 10:45:22;;;;;;;21.63;19.45;;;20.20;63.40;;;;;;5030520;28;20025;-48
2022/01/14 10:48:01;;;;;;;23.05;20.80;;;20.60;64.10;;;;;;5024741;28;20046;-47
2022/01/14 10:50:36;;;;;;;25.23;22.88;;;21.70;63.10;;;;;;5027508;28;20040;-48
2022/01/14 10:53:14;;;;;;;21.25;19.05;;;19.40;65.00;;;;;;5006960;28;20055;-48
2022/01/14 10:55:53;;;;;;;19.00;17.00;;;19.80;65.00;;;;;;5069600;28;20078;-47
2022/01/14 10:58:31;;;;;;;24.40;19.15;;;19.00;65.60;;;;;;5067105;28;20085;-47
2022/01/14 11:01:00;;;;;;;18.70;16.90;;;19.70;66.10;;;;;;5071191;28;20075;-48
2022/01/14 11:03:38;;;;;;;23.95;16.58;;;18.60;66.80;;;;;;5019949;28;20052;-48
2022/01/14 11:06:40;;;;;;;18.17;16.40;;;18.50;67.90;;;;;;5071615;28;20532;-47
2022/01/14 11:09:07;;;;;;;20.30;17.38;;;18.00;67.40;;;;;;5020723;28;20032;-47
2022/01/14 11:11:35;;;;;;;19.08;15.43;;;18.30;68.20;;;;;;5071519;28;20093;-48
2022/01/14 11:14:02;;;;;;;17.77;15.60;;;17.30;68.40;;;;;;5036933;28;20124;-48
2022/01/14 11:16:28;;;;;;;17.40;15.70;;;17.00;69.80;;;;;;5037522;28;20400;-49
2022/01/14 11:19:00;;;;;;;25.83;16.55;;;18.30;69.00;;;;;;5071877;28;21284;-48
2022/01/14 11:24:18;;;;;;;17.67;15.85;;;18.00;68.70;;;;;;5069496;28;20268;-47
2022/01/14 11:26:46;;;;;;;27.13;20.45;;;18.90;67.60;;;;;;5069136;28;20040;-48
2022/01/14 11:29:17;;;;;;;16.75;14.95;;;19.60;66.50;;;;;;5072803;28;20041;-46
2022/01/14 11:31:43;;;;;;;18.13;15.77;;;19.10;66.60;;;;;;5010478;28;20037;-49
2022/01/14 11:34:29;;;;;;;26.33;17.25;;;19.40;66.00;;;;;;4985248;28;20077;-48
2022/01/14 11:37:00;;;;;;;21.33;14.73;;;19.90;65.50;;;;;;4988421;28;20093;-48
2022/01/14 11:39:30;;;;;;;20.70;17.02;;;20.30;65.50;;;;;;4987711;28;20046;-47
2022/01/14 11:42:02;;;;;;;43.17;25.38;;;20.20;64.70;;;;;;4989825;28;20490;-47
2022/01/14 11:44:52;;;;;;;26.30;18.92;;;20.40;65.00;;;;;;4968262;28;20046;-48
2022/01/14 11:47:28;;;;;;;30.05;22.02;;;20.50;64.10;;;;;;4968630;28;20087;-47
2022/01/14 11:49:56;;;;;;;34.88;23.05;;;20.30;64.70;;;;;;4968691;28;20041;-48
2022/01/14 11:52:38;;;;;;;24.35;18.45;;;20.20;65.50;;;;;;4971297;28;20079;-49
2022/01/14 11:55:19;;;;;;;27.15;18.48;;;20.20;65.20;;;;;;4968905;28;20129;-47
2022/01/14 11:57:45;;;;;;;28.90;16.15;;;20.30;65.80;;;;;;4972285;28;20051;-48
2022/01/14 12:03:21;;;;;;;23.40;18.95;;;19.10;67.30;;;;;;4998180;28;20034;-46
2022/01/14 12:05:50;;;;;;;21.65;16.55;;;19.50;66.90;;;;;;5011826;28;20065;-47
2022/01/14 12:08:21;;;;;;;29.58;20.05;;;18.90;67.30;;;;;;5021646;28;20045;-47
2022/01/14 12:10:50;;;;;;;18.83;14.45;;;18.30;68.20;;;;;;5023544;28;20050;-49
2022/01/14 12:13:20;;;;;;;16.60;13.88;;;;;;;;;;5004239;28;20124;-46
2022/01/14 12:15:55;;;;;;;24.05;15.55;;;18.60;67.90;;;;;;5052099;28;20116;-47
2022/01/14 12:18:59;;;;;;;69.05;32.10;;;18.30;69.40;;;;;;5066355;28;20422;-45
2022/01/14 12:21:50;;;;;;;44.47;23.73;;;16.90;71.30;;;;;;5074169;28;20115;-46
2022/01/14 12:24:16;;;;;;;29.60;21.73;;;16.90;72.70;;;;;;5052200;28;20052;-49
2022/01/14 12:27:12;;;;;;;63.05;34.10;;;16.90;72.90;;;;;;5065586;28;20082;-49
2022/01/14 12:29:41;;;;;;;87.38;39.42;;;16.40;78.20;;;;;;5072774;28;20036;-45
2022/01/14 12:32:14;;;;;;;388.45;168.35;;;14.70;74.70;;;;;;5074793;28;20426;-45
2022/01/14 12:34:56;;;;;;;84.35;38.05;;;15.10;76.20;;;;;;5074572;28;20036;-47
2022/01/14 12:37:37;;;;;;;35.33;20.83;;;14.10;77.00;;;;;;5050300;28;20044;-47
2022/01/14 12:40:06;;;;;;;38.20;23.77;;;13.60;84.30;;;;;;5036667;28;20053;-49
2022/01/14 12:42:32;;;;;;;30.45;20.00;;;13.20;83.30;;;;;;4994987;28;20114;-51
2022/01/14 12:45:00;;;;;;;22.10;15.85;;;13.30;88.20;;;;;;5073813;28;20074;-49
2022/01/14 12:47:35;;;;;;;19.85;14.52;;;13.40;80.10;;;;;;5074042;28;20068;-49
2022/01/14 12:50:04;;;;;;;65.55;35.17;;;13.80;79.80;;;;;;5074363;28;20040;-50
2022/01/14 12:52:38;;;;;;;94.05;46.35;;;14.30;78.60;;;;;;5015831;28;20480;-51
2022/01/14 12:55:08;;;;;;;19.52;13.25;;;14.10;78.70;;;;;;5071489;28;20036;-50
2022/01/14 12:57:34;;;;;;;20.00;13.70;;;14.50;78.80;;;;;;4992950;28;20121;-50
2022/01/14 13:00:01;;;;;;;21.33;14.20;;;14.20;79.30;;;;;;4949823;28;20541;-51
2022/01/14 13:02:31;;;;;;;29.60;16.02;;;13.70;79.60;;;;;;4957959;28;20046;-50
2022/01/14 13:05:04;;;;;;;30.40;14.90;;;14.20;79.90;;;;;;4993182;28;20180;-51
2022/01/14 13:07:30;;;;;;;39.13;23.88;;;14.00;79.40;;;;;;4994210;28;20660;-50
2022/01/14 13:09:57;;;;;;;51.58;28.60;;;14.10;80.50;;;;;;4989938;28;20087;-50
2022/01/14 13:12:27;;;;;;;32.17;18.88;;;14.60;79.10;;;;;;4938672;28;20050;-51
2022/01/14 13:15:00;;;;;;;23.13;14.30;;;14.60;79.60;;;;;;4985327;28;20057;-50
2022/01/14 13:17:33;;;;;;;21.65;14.40;;;14.60;79.90;;;;;;4962192;28;20137;-49
2022/01/14 13:20:25;;;;;;;31.75;18.08;;;15.10;79.10;;;;;;4992551;28;20040;-51